Time;durP1;ratioP1;P1;durP2;ratioP2;P2;SDS_P1;SDS_P2;PMS_P1;PMS_P2;Temp;Humidity;BMP_temperature;BMP_pressure;BME280_temperature;BME280_humidity;BME280_pressure;Samples;Min_cycle;Max_cycle;Signal;HPM_P1;HPM_P2
2022/09/20 00:00:58;;;;;;;11.80;6.90;;;;;;;8.94;100.00;98450.39;220559;1281;22546;-81
2022/09/20 00:07:45;;;;;;;;;;;;;;;;;;;;;
2022/09/20 00:14:19;;;;;;;9.50;6.00;;;;;;;8.94;100.00;98454.95;219729;1281;23327;-81
2022/09/20 00:21:12;;;;;;;10.60;6.20;;;;;;;8.93;100.00;98456.38;220682;1278;25331;-81
2022/09/20 00:27:57;;;;;;;7.00;5.90;;;;;;;8.93;100.00;98458.86;220061;1277;25296;-81
2022/09/20 00:48:54;;;;;;;8.10;4.70;;;;;;;8.90;100.00;98463.09;221060;1277;22710;-79
2022/09/20 00:55:15;;;;;;;5.00;4.00;;;;;;;8.88;100.00;98469.96;220764;1278;25543;-80
2022/09/20 01:02:08;;;;;;;;;;;;;;;;;;;;;
2022/09/20 01:09:08;;;;;;;5.00;2.70;;;;;;;8.86;100.00;98467.36;220244;1277;24232;-81
2022/09/20 01:22:19;;;;;;;5.50;3.10;;;;;;;8.81;100.00;98466.51;219406;1284;22550;-81
2022/09/20 01:29:10;;;;;;;4.30;3.70;;;;;;;8.78;100.00;98468.78;220053;1284;22556;-81
2022/09/20 01:35:47;;;;;;;;;;;;;;;;;;;;;
2022/09/20 01:42:15;;;;;;;;;;;;;;;;;;;;;
2022/09/20 01:49:29;;;;;;;;;;;;;;;;;;;;;
2022/09/20 01:56:14;;;;;;;7.50;3.50;;;;;;;8.71;100.00;98470.52;220503;1277;22541;-82
2022/09/20 02:09:28;;;;;;;;;;;;;;;;;;;;;
2022/09/20 02:30:38;;;;;;;;;;;;;;;;;;;;;
2022/09/20 02:37:28;;;;;;;6.10;3.80;;;;;;;8.68;100.00;98481.70;218743;1287;24287;-80
2022/09/20 02:50:26;;;;;;;;;;;;;;;;;;;;;
2022/09/20 03:04:01;;;;;;;7.70;3.60;;;;;;;8.63;100.00;98494.85;220134;1282;24371;-80
2022/09/20 03:10:27;;;;;;;5.90;4.10;;;;;;;8.64;100.00;98497.40;220016;1282;25425;-79
2022/09/20 03:16:46;;;;;;;8.10;4.50;;;;;;;8.65;100.00;98497.39;219302;1282;22716;-80
2022/09/20 03:24:00;;;;;;;7.50;4.20;;;;;;;8.65;100.00;98502.14;219264;1282;22605;-79
2022/09/20 03:31:09;;;;;;;6.00;3.50;;;;;;;8.64;100.00;98505.67;219286;1282;25466;-80
2022/09/20 03:51:49;;;;;;;11.10;5.70;;;;;;;8.60;100.00;98508.54;218551;1284;24554;-81
2022/09/20 04:05:52;;;;;;;;;;;;;;;;;;;;;
2022/09/20 04:12:46;;;;;;;7.00;5.20;;;;;;;8.61;100.00;98518.36;219290;1283;22578;-79
2022/09/20 04:20:04;;;;;;;8.70;6.10;;;;;;;8.62;100.00;98523.80;219481;1282;24337;-80
2022/09/20 04:33:44;;;;;;;8.70;6.00;;;;;;;8.62;100.00;98529.50;217846;1287;25533;-81
2022/09/20 04:40:51;;;;;;;;;;;;;;;;;;;;;
2022/09/20 04:54:36;;;;;;;;;;;;;;;;;;;;;
2022/09/20 05:01:19;;;;;;;;;;;;;;;;;;;;;
2022/09/20 05:08:01;;;;;;;10.70;5.80;;;;;;;8.73;100.00;98548.80;220707;1279;24194;-80
2022/09/20 05:13:51;;;;;;;7.50;4.80;;;;;;;8.77;100.00;98557.09;220492;1281;22582;-80
2022/09/20 05:19:54;;;;;;;;;;;;;;;;;;;;;
2022/09/20 05:27:14;;;;;;;8.80;5.40;;;;;;;8.83;100.00;98568.69;219765;1279;22574;-80
2022/09/20 05:33:28;;;;;;;9.30;4.90;;;;;;;8.88;100.00;98573.39;219730;1279;24270;-82
2022/09/20 05:39:21;;;;;;;7.30;5.10;;;;;;;8.92;100.00;98573.20;220768;1277;25371;-81
2022/09/20 05:44:53;;;;;;;7.70;5.00;;;;;;;8.97;100.00;98576.55;221195;1278;25889;-81
2022/09/20 05:51:02;;;;;;;;;;;;;;;;;;;;;
2022/09/20 05:56:41;;;;;;;7.90;5.10;;;;;;;9.12;100.00;98580.91;220829;1276;22927;-81
2022/09/20 06:09:20;;;;;;;6.20;4.40;;;;;;;9.32;100.00;98586.40;222025;1276;22591;-78
2022/09/20 06:15:33;;;;;;;8.90;4.90;;;;;;;9.39;100.00;98585.70;220614;1283;24753;-80
2022/09/20 06:22:27;;;;;;;7.20;4.30;;;;;;;9.39;100.00;98594.36;219060;1282;24249;-78
2022/09/20 06:35:46;;;;;;;;;;;;;;;;;;;;;
2022/09/20 06:41:54;;;;;;;;;;;;;;;;;;;;;
2022/09/20 06:48:15;;;;;;;;;;;;;;;;;;;;;
2022/09/20 06:54:37;;;;;;;;;;;;;;;;;;;;;
2022/09/20 07:01:31;;;;;;;;;;;;;;;;;;;;;
2022/09/20 07:07:34;;;;;;;;;;;;;;;;;;;;;
2022/09/20 07:14:00;;;;;;;;;;;;;;;;;;;;;
2022/09/20 07:20:08;;;;;;;4.10;3.30;;;;;;;9.82;100.00;98635.15;221681;1276;23831;-82
2022/09/20 07:26:24;;;;;;;4.20;3.30;;;;;;;9.85;100.00;98644.16;220915;1282;22566;-81
2022/09/20 07:32:42;;;;;;;7.40;4.60;;;;;;;9.93;100.00;98650.70;220965;1281;22602;-81
2022/09/20 07:39:28;;;;;;;6.50;5.50;;;;;;;9.98;100.00;98652.04;220328;1281;25352;-81
2022/09/20 07:46:07;;;;;;;5.80;5.20;;;;;;;10.31;100.00;98650.04;221807;1276;22594;-80
2022/09/20 07:52:04;;;;;;;5.50;5.00;;;;;;;10.78;100.00;98655.69;221230;1277;23116;-79
2022/09/20 07:58:43;;;;;;;6.30;4.60;;;;;;;11.03;100.00;98660.66;221943;1276;22574;-77
2022/09/20 08:04:50;;;;;;;4.30;3.30;;;;;;;11.25;100.00;98664.80;220517;1276;23216;-77
2022/09/20 08:11:06;;;;;;;;;;;;;;;;;;;;;
2022/09/20 08:17:52;;;;;;;;;;;;;;;;;;;;;
2022/09/20 08:23:33;;;;;;;;;;;;;;;;;;;;;
2022/09/20 08:29:56;;;;;;;3.30;2.60;;;;;;;11.86;100.00;98681.41;221665;1277;22573;-79
2022/09/20 08:43:24;;;;;;;;;;;;;;;;;;;;;
2022/09/20 08:49:58;;;;;;;4.40;2.40;;;;;;;12.11;100.00;98693.38;221909;1277;22543;-83
2022/09/20 08:56:39;;;;;;;;;;;;;;;;;;;;;
2022/09/20 09:03:02;;;;;;;;;;;;;;;;;;;;;
2022/09/20 09:09:28;;;;;;;1.40;0.90;;;;;;;11.95;99.18;98708.91;222329;1276;22563;-86
2022/09/20 09:16:16;;;;;;;;;;;;;;;;;;;;;
2022/09/20 09:22:47;;;;;;;2.50;1.10;;;;;;;11.84;99.83;98704.54;220367;1282;22535;-85
2022/09/20 09:29:02;;;;;;;;;;;;;;;;;;;;;
2022/09/20 09:35:41;;;;;;;;;;;;;;;;;;;;;
2022/09/20 09:48:48;;;;;;;;;;;;;;;;;;;;;
2022/09/20 09:54:53;;;;;;;;;;;;;;;;;;;;;
2022/09/20 10:01:16;;;;;;;1.70;1.10;;;;;;;12.79;96.72;98701.05;220478;1284;22552;-85
2022/09/20 10:08:09;;;;;;;3.20;1.00;;;;;;;12.89;96.75;98699.31;221427;1276;22588;-84
2022/09/20 10:21:52;;;;;;;;;;;;;;;;;;;;;
2022/09/20 10:28:35;;;;;;;;;;;;;;;;;;;;;
2022/09/20 10:48:47;;;;;;;;;;;;;;;;;;;;;
2022/09/20 10:55:12;;;;;;;3.60;1.60;;;;;;;13.28;92.21;98707.98;221373;1276;24161;-82
2022/09/20 11:08:49;;;;;;;;;;;;;;;;;;;;;
2022/09/20 11:15:10;;;;;;;1.80;1.70;;;;;;;13.45;93.05;98705.71;220821;1280;24526;-79
2022/09/20 11:28:42;;;;;;;1.30;1.00;;;;;;;12.75;90.60;98703.20;220990;1281;25426;-78
2022/09/20 11:42:19;;;;;;;0.80;0.80;;;;;;;12.90;90.26;98714.84;220944;1277;24317;-78
2022/09/20 11:48:01;;;;;;;1.90;1.00;;;;;;;12.98;90.06;98708.00;221362;1276;23851;-77
2022/09/20 12:01:15;;;;;;;;;;;;;;;;;;;;;
2022/09/20 12:07:34;;;;;;;;;;;;;;;;;;;;;
2022/09/20 12:20:13;;;;;;;0.80;0.60;;;;;;;13.66;87.80;98711.52;221841;1276;23320;-79
2022/09/20 12:27:15;;;;;;;;;;;;;;;;;;;;;
2022/09/20 12:40:27;;;;;;;;;;;;;;;;;;;;;
2022/09/20 12:47:15;;;;;;;3.20;0.70;;;;;;;13.74;86.38;98689.18;221773;1277;22700;-78
2022/09/20 12:53:15;;;;;;;0.70;0.70;;;;;;;13.88;86.34;98694.59;220071;1284;25281;-79
2022/09/20 12:59:39;;;;;;;;;;;;;;;;;;;;;
2022/09/20 13:06:16;;;;;;;1.30;0.60;;;;;;;13.94;86.40;98692.14;222013;1276;25340;-78
2022/09/20 13:11:43;;;;;;;1.30;0.70;;;;;;;13.94;86.60;98695.42;220724;1276;25314;-77
2022/09/20 13:17:20;;;;;;;0.70;0.70;;;;;;;13.94;85.76;98691.23;220661;1276;23131;-77
2022/09/20 13:22:47;;;;;;;1.10;0.80;;;;;;;13.96;85.33;98690.23;220305;1278;24146;-76
2022/09/20 13:28:15;;;;;;;1.10;0.90;;;;;;;14.13;85.20;98692.03;220335;1279;22875;-76
2022/09/20 13:33:42;;;;;;;1.40;1.20;;;;;;;14.37;85.51;98694.99;221844;1276;22741;-78
2022/09/20 13:39:43;;;;;;;1.30;1.10;;;;;;;14.44;85.67;98696.96;220509;1276;24269;-79
2022/09/20 13:45:12;;;;;;;0.90;0.80;;;;;;;14.29;85.56;98700.46;221681;1276;25501;-78
2022/09/20 13:50:45;;;;;;;0.90;0.80;;;;;;;14.43;85.87;98704.04;220725;1276;189111;-79
2022/09/20 13:56:27;;;;;;;1.00;0.90;;;;;;;14.72;84.05;98708.88;221814;1275;23361;-79
2022/09/20 14:02:17;;;;;;;0.60;0.40;;;;;;;14.84;84.17;98699.96;221687;1276;22731;-79
2022/09/20 14:07:32;;;;;;;1.50;0.50;;;;;;;14.78;83.65;98704.21;220037;1277;24309;-78
2022/09/20 14:13:08;;;;;;;1.30;0.60;;;;;;;14.70;83.12;98702.17;220898;1276;22624;-78
2022/09/20 14:18:26;;;;;;;2.20;0.80;;;;;;;14.61;82.86;98700.75;221143;1275;26027;-79
2022/09/20 14:24:07;;;;;;;;;;;;;;;;;;;;;
2022/09/20 14:29:45;;;;;;;1.00;0.70;;;;;;;14.43;83.41;98701.30;220998;1276;24361;-78
2022/09/20 14:35:22;;;;;;;0.90;0.80;;;;;;;14.47;83.54;98708.41;220939;1277;25343;-77
2022/09/20 14:40:42;;;;;;;3.20;1.10;;;;;;;14.49;82.82;98710.13;220323;1276;24678;-77
2022/09/20 14:45:56;;;;;;;1.70;1.00;;;;;;;14.44;82.03;98715.54;220857;1276;22611;-77
2022/09/20 14:52:10;;;;;;;2.90;0.90;;;;;;;14.35;82.51;98716.42;220160;1276;22623;-77
2022/09/20 14:57:47;;;;;;;1.10;1.00;;;;;;;14.21;82.82;98717.57;218550;1287;22558;-77
2022/09/20 15:03:48;;;;;;;1.80;1.10;;;;;;;14.07;82.87;98719.05;218435;1287;24308;-77
2022/09/20 15:09:36;;;;;;;2.00;1.10;;;;;;;13.90;83.21;98719.58;220147;1278;22614;-78
2022/09/20 15:14:53;;;;;;;1.60;1.20;;;;;;;13.72;83.50;98721.70;221226;1277;24337;-77
2022/09/20 15:20:22;;;;;;;1.50;1.00;;;;;;;13.52;83.71;98726.33;220966;1277;25424;-78
2022/09/20 15:26:09;;;;;;;1.00;0.90;;;;;;;13.29;84.00;98732.73;220324;1278;23275;-77
2022/09/20 15:31:42;;;;;;;1.40;1.10;;;;;;;13.07;84.69;98737.96;221179;1278;22644;-77
2022/09/20 15:37:58;;;;;;;;;;;;;;;;;;;;;
2022/09/20 15:43:42;;;;;;;1.50;1.30;;;;;;;12.57;86.50;98752.95;220803;1278;24408;-78
2022/09/20 15:49:02;;;;;;;1.40;1.30;;;;;;;12.39;87.15;98756.16;219241;1284;24787;-77
2022/09/20 15:54:31;;;;;;;1.40;1.30;;;;;;;12.36;87.13;98762.25;219048;1284;22582;-77
2022/09/20 15:59:36;;;;;;;1.90;1.60;;;;;;;12.32;87.20;98767.27;218955;1284;22692;-78
2022/09/20 16:05:08;;;;;;;3.30;1.60;;;;;;;12.27;87.48;98765.69;219932;1284;22578;-77
2022/09/20 16:11:04;;;;;;;2.40;1.80;;;;;;;12.22;88.12;98767.63;219120;1284;25499;-77
2022/09/20 16:16:52;;;;;;;3.10;1.80;;;;;;;12.09;88.35;98782.59;219425;1282;22650;-79
2022/09/20 16:22:48;;;;;;;1.90;1.70;;;;;;;11.94;88.59;98784.30;220862;1278;24266;-77
2022/09/20 16:28:48;;;;;;;;;;;;;;;;;;;;;
2022/09/20 16:34:53;;;;;;;1.70;1.10;;;;;;;11.60;88.90;98796.80;220203;1277;23498;-75
2022/09/20 16:40:32;;;;;;;1.30;1.20;;;;;;;11.39;89.15;98807.23;220178;1277;22649;-77
2022/09/20 16:45:47;;;;;;;1.50;1.20;;;;;;;11.17;89.35;98818.80;219752;1279;23079;-78
2022/09/20 16:51:40;;;;;;;2.90;1.70;;;;;;;10.97;89.54;98824.85;220212;1278;22559;-77
2022/09/20 16:57:36;;;;;;;;;;;;;;;;;;;;;
2022/09/20 17:03:25;;;;;;;;;;;;;;;;;;;;;
2022/09/20 17:09:21;;;;;;;5.90;2.30;;;;;;;10.35;90.60;98841.55;219645;1279;24281;-77
2022/09/20 17:14:46;;;;;;;4.10;2.60;;;;;;;10.19;90.88;98842.35;220456;1279;23244;-78
2022/09/20 17:20:33;;;;;;;5.40;2.90;;;;;;;10.03;90.98;98850.33;219926;1279;22628;-76
2022/09/20 17:26:21;;;;;;;;;;;;;;;9.90;91.56;98852.60;219851;1280;22601;-77
2022/09/20 17:31:46;;;;;;;7.00;4.00;;;;;;;9.79;91.94;98859.01;219980;1279;25428;-76
2022/09/20 17:37:38;;;;;;;6.20;4.20;;;;;;;9.68;92.07;98868.08;219814;1284;24340;-77
2022/09/20 17:43:17;;;;;;;5.20;3.70;;;;;;;9.57;92.53;98875.54;218928;1284;26462;-77
2022/09/20 17:49:26;;;;;;;;;;;;;;;;;;;;;
2022/09/20 17:54:55;;;;;;;8.40;4.00;;;;;;;9.35;93.37;98895.16;219484;1279;22558;-76
2022/09/20 18:00:24;;;;;;;8.40;5.80;;;;;;;9.26;93.68;98903.02;219447;1279;22602;-77
2022/09/20 18:06:09;;;;;;;13.30;7.90;;;;;;;9.14;93.95;98906.94;220248;1279;25446;-77
2022/09/20 18:12:06;;;;;;;12.50;8.10;;;;;;;9.01;94.28;98908.77;219661;1279;24451;-77
2022/09/20 18:17:44;;;;;;;13.70;7.30;;;;;;;8.93;94.66;98910.56;219443;1280;22669;-76
2022/09/20 18:23:50;;;;;;;14.50;7.30;;;;;;;8.89;95.06;98913.67;219794;1281;22639;-77
2022/09/20 18:29:35;;;;;;;11.40;6.90;;;;;;;8.91;95.49;98920.23;219816;1280;22724;-76
2022/09/20 18:35:55;;;;;;;10.50;6.50;;;;;;;8.93;95.86;98934.45;219184;1284;25267;-76
2022/09/20 18:41:36;;;;;;;12.70;7.70;;;;;;;8.97;96.13;98937.73;217068;1292;24338;-76
2022/09/20 18:47:28;;;;;;;;;;;;;;;;;;;;;
2022/09/20 18:54:10;;;;;;;;;;;;;;;;;;;;;
2022/09/20 19:00:14;;;;;;;13.10;7.70;;;;;;;8.97;96.58;98950.66;216449;1294;23316;-77
2022/09/20 19:05:52;;;;;;;16.30;8.40;;;;;;;8.99;96.95;98954.09;217325;1294;22595;-76
2022/09/20 19:11:11;;;;;;;14.40;7.80;;;;;;;9.01;97.22;98958.14;219354;1281;22557;-76
2022/09/20 19:17:15;;;;;;;11.90;7.40;;;;;;;9.04;97.76;98966.52;219547;1279;25420;-77
2022/09/20 19:23:40;;;;;;;;;;;;;;;;;;;;;
2022/09/20 19:29:08;;;;;;;12.00;7.00;;;;;;;9.12;98.29;98975.38;221235;1276;24373;-77
2022/09/20 19:34:49;;;;;;;;;;;;;;;;;;;;;
2022/09/20 19:41:13;;;;;;;;;;;;;;;;;;;;;
2022/09/20 19:54:04;;;;;;;11.10;6.50;;;;;;;9.10;98.64;98979.38;219829;1278;23888;-77
2022/09/20 19:59:43;;;;;;;11.00;6.30;;;;;;;9.03;98.80;98977.31;220060;1277;25527;-77
2022/09/20 20:05:53;;;;;;;9.80;5.90;;;;;;;9.04;99.09;98983.41;220107;1277;24325;-76
2022/09/20 20:19:12;;;;;;;8.60;5.80;;;;;;;8.99;99.47;98996.19;220023;1277;22557;-77
2022/09/20 20:25:52;;;;;;;;;;;;;;;;;;;;;
2022/09/20 20:38:36;;;;;;;12.30;6.50;;;;;;;8.70;99.89;98998.84;220717;1277;22618;-77
2022/09/20 20:44:36;;;;;;;9.80;6.20;;;;;;;8.59;99.98;98999.92;220145;1276;23105;-75
2022/09/20 20:57:55;;;;;;;;;;;;;;;;;;;;;
2022/09/20 21:04:32;;;;;;;;;;;;;;;;;;;;;
2022/09/20 21:10:44;;;;;;;15.30;7.70;;;;;;;8.38;100.00;99025.60;218366;1287;22574;-76
2022/09/20 21:17:03;;;;;;;14.90;8.10;;;;;;;8.29;100.00;99018.23;219228;1282;22565;-76
2022/09/20 21:23:18;;;;;;;15.30;7.90;;;;;;;8.28;100.00;99018.45;220083;1276;24229;-77
2022/09/20 21:29:45;;;;;;;12.80;7.20;;;;;;;8.30;100.00;99017.64;220698;1277;24118;-77
2022/09/20 21:36:08;;;;;;;11.70;6.90;;;;;;;8.30;100.00;99021.59;220617;1277;22610;-77
2022/09/20 21:42:21;;;;;;;14.00;7.90;;;;;;;8.32;100.00;99027.24;218691;1284;22558;-76
2022/09/20 21:48:15;;;;;;;;;;;;;;;;;;;;;
2022/09/20 21:54:33;;;;;;;;;;;;;;;;;;;;;
2022/09/20 22:00:33;;;;;;;;;;;;;;;;;;;;;
2022/09/20 22:14:03;;;;;;;16.20;8.00;;;;;;;7.96;100.00;99039.16;219135;1281;24702;-77
2022/09/20 22:20:07;;;;;;;14.00;7.70;;;;;;;7.87;100.00;99040.64;219345;1281;22618;-78
2022/09/20 22:25:40;;;;;;;14.10;8.00;;;;;;;7.82;100.00;99042.23;219379;1281;22791;-77
2022/09/20 22:31:40;;;;;;;;;;;;;;;;;;;;;
2022/09/20 22:38:03;;;;;;;;;;;;;;;;;;;;;
2022/09/20 22:44:14;;;;;;;14.30;9.20;;;;;;;7.59;100.00;99045.64;221240;1277;22565;-76
2022/09/20 22:49:59;;;;;;;;;;;;;;;7.56;100.00;99049.94;219951;1276;22531;-77
2022/09/20 22:56:48;;;;;;;;;;;;;;;;;;;;;
2022/09/20 23:03:10;;;;;;;12.70;7.90;;;;;;;7.60;100.00;99062.39;221091;1277;23122;-77
2022/09/20 23:09:21;;;;;;;13.70;8.00;;;;;;;7.64;100.00;99055.52;220210;1277;22571;-77
2022/09/20 23:15:36;;;;;;;17.30;8.10;;;;;;;7.65;100.00;99052.77;220067;1276;23618;-77
2022/09/20 23:21:48;;;;;;;13.20;8.30;;;;;;;7.66;100.00;99053.61;220173;1277;25360;-77
2022/09/20 23:34:52;;;;;;;14.90;7.60;;;;;;;7.66;100.00;99061.86;220120;1277;22547;-77
2022/09/20 23:40:33;;;;;;;12.30;7.80;;;;;;;7.65;100.00;99063.42;220164;1276;22563;-77
2022/09/20 23:46:50;;;;;;;11.90;7.30;;;;;;;7.66;100.00;99061.02;220037;1277;25269;-75
2022/09/20 23:53:05;;;;;;;12.20;7.70;;;;;;;7.66;100.00;99062.67;219565;1279;23032;-77
